createdAt,value
2019-04-14T00:04:22.593Z,1.65
2019-04-14T00:09:27.231Z,1.65
2019-04-14T00:14:31.511Z,1.40
2019-04-14T00:19:35.033Z,1.60
2019-04-14T00:24:38.532Z,1.32
2019-04-14T00:29:42.000Z,1.45
2019-04-14T00:35:02.295Z,1.40
2019-04-14T00:40:12.910Z,1.20
2019-04-14T00:45:31.954Z,1.63
2019-04-14T00:50:26.070Z,1.50
2019-04-14T00:55:29.529Z,1.60
2019-04-14T01:00:34.114Z,1.17
2019-04-14T01:05:37.747Z,1.80
2019-04-14T01:10:41.247Z,1.17
2019-04-14T01:15:51.487Z,1.12
2019-04-14T01:20:49.858Z,1.20
2019-04-14T01:25:54.222Z,1.35
2019-04-14T01:30:58.934Z,1.52
2019-04-14T01:36:02.494Z,1.42
2019-04-14T01:41:06.428Z,1.60
2019-04-14T01:46:16.584Z,1.60
2019-04-14T01:51:33.062Z,1.82
2019-04-14T01:56:44.925Z,1.33
2019-04-14T02:01:50.087Z,1.62
2019-04-14T02:06:53.553Z,1.30
2019-04-14T02:11:57.483Z,1.40
2019-04-14T02:17:03.138Z,1.30
2019-04-14T02:22:07.351Z,1.35
2019-04-14T02:27:11.961Z,1.40
2019-04-14T02:32:42.517Z,1.20
2019-04-14T02:42:55.880Z,1.30
2019-04-14T02:53:07.703Z,1.10
2019-04-14T02:58:16.454Z,1.07
2019-04-14T03:03:16.039Z,1.37
2019-04-14T03:08:25.595Z,1.27
2019-04-14T03:28:46.019Z,1.30
2019-04-14T03:39:00.067Z,1.30
2019-04-14T03:43:57.702Z,1.42
2019-04-14T03:49:10.028Z,1.10
2019-04-14T03:54:06.197Z,1.05
2019-04-14T03:58:49.045Z,1.20
2019-04-14T04:03:52.525Z,1.12
2019-04-14T04:08:56.031Z,1.20
2019-04-14T04:14:00.618Z,1.00
2019-04-14T04:19:13.487Z,1.30
2019-04-14T04:24:29.251Z,1.02
2019-04-14T04:29:42.617Z,1.00
2019-04-14T04:34:47.717Z,1.27
2019-04-14T04:39:56.154Z,1.30
2019-04-14T04:44:59.677Z,0.90
2019-04-14T04:50:04.346Z,1.12
2019-04-14T04:55:08.877Z,1.15
2019-04-14T05:00:13.454Z,0.82
2019-04-14T05:05:53.603Z,0.90
2019-04-14T05:11:01.191Z,0.98
2019-04-14T05:16:04.653Z,1.12
2019-04-14T05:21:08.215Z,1.30
2019-04-14T05:26:11.650Z,1.10
2019-04-14T05:31:16.358Z,0.93
2019-04-14T05:36:19.955Z,1.00
2019-04-14T05:41:24.446Z,1.10
2019-04-14T05:46:27.961Z,0.93
2019-04-14T05:51:32.522Z,1.10
2019-04-14T05:56:37.644Z,1.35
2019-04-14T06:01:42.076Z,1.23
2019-04-14T06:06:45.593Z,1.10
2019-04-14T06:11:49.053Z,1.20
2019-04-14T06:16:52.512Z,0.85
2019-04-14T06:21:55.968Z,1.07
2019-04-14T06:26:59.423Z,1.10
2019-04-14T06:32:04.522Z,1.15
2019-04-14T06:37:12.262Z,1.25
2019-04-14T06:42:15.731Z,0.90
2019-04-14T06:47:19.194Z,1.22
2019-04-14T06:52:22.654Z,1.07
2019-04-14T06:57:26.112Z,0.95
2019-04-14T07:02:29.580Z,2.27
2019-04-14T07:07:33.038Z,2.97
2019-04-14T07:12:36.497Z,3.10
2019-04-14T07:17:39.953Z,2.45
2019-04-14T07:22:43.412Z,2.42
2019-04-14T07:27:46.873Z,1.92
2019-04-14T07:32:51.974Z,2.15
2019-04-14T07:38:03.017Z,2.30
2019-04-14T07:43:10.990Z,1.82
2019-04-14T07:48:18.802Z,1.85
2019-04-14T07:53:23.904Z,1.32
2019-04-14T07:58:45.331Z,1.43
2019-04-14T08:03:56.118Z,1.60
2019-04-14T08:08:59.588Z,1.52
2019-04-14T08:14:03.118Z,1.37
2019-04-14T08:19:06.579Z,1.57
2019-04-14T08:24:10.036Z,1.62
2019-04-14T08:29:13.494Z,1.43
2019-04-14T08:34:16.949Z,1.30
2019-04-14T08:39:20.416Z,1.62
2019-04-14T08:44:25.513Z,1.65
2019-04-14T08:49:39.906Z,1.60
2019-04-14T08:54:56.949Z,1.30
2019-04-14T09:00:07.549Z,1.17
2019-04-14T09:05:12.829Z,1.53
2019-04-14T09:10:20.594Z,1.33
2019-04-14T09:15:24.059Z,1.40
2019-04-14T09:20:27.598Z,1.40
2019-04-14T09:25:31.042Z,1.03
2019-04-14T09:30:34.501Z,1.35
2019-04-14T09:35:37.971Z,1.17
2019-04-14T09:40:41.453Z,1.50
2019-04-14T09:45:44.920Z,1.27
2019-04-14T09:50:48.377Z,1.05
2019-04-14T09:55:51.839Z,1.50
2019-04-14T10:00:55.303Z,1.50
2019-04-14T10:05:58.764Z,1.40
2019-04-14T10:11:02.232Z,1.00
2019-04-14T10:16:05.689Z,1.22
2019-04-14T10:21:17.322Z,1.12
2019-04-14T10:26:14.349Z,1.27
2019-04-14T10:31:17.815Z,1.60
2019-04-14T10:36:21.279Z,2.73
2019-04-14T10:41:24.742Z,3.92
2019-04-14T10:46:28.213Z,5.37
2019-04-14T10:51:34.055Z,6.58
2019-04-14T10:56:36.878Z,6.40
2019-04-14T11:01:40.387Z,7.03
2019-04-14T11:06:51.665Z,5.47
2019-04-14T11:11:55.125Z,5.33
2019-04-14T11:16:58.594Z,5.08
2019-04-14T11:22:02.135Z,4.85
2019-04-14T11:27:05.602Z,4.55
2019-04-14T11:32:28.674Z,4.95
2019-04-14T11:37:33.792Z,4.47
2019-04-14T11:42:37.247Z,3.83
2019-04-14T11:47:40.720Z,3.85
2019-04-14T11:52:44.184Z,3.40
2019-04-14T11:57:47.641Z,3.65
2019-04-14T12:03:08.958Z,3.83
2019-04-14T12:08:14.070Z,3.60
2019-04-14T12:13:17.532Z,3.20
2019-04-14T12:18:20.994Z,3.50
2019-04-14T12:23:24.453Z,3.37
2019-04-14T12:28:28.452Z,3.00
2019-04-14T12:33:32.064Z,2.58
2019-04-14T12:38:35.592Z,3.17
2019-04-14T12:43:43.615Z,3.10
2019-04-14T12:48:51.134Z,3.25
2019-04-14T12:53:54.601Z,3.20
2019-04-14T12:58:59.972Z,2.90
2019-04-14T13:04:03.433Z,3.60
2019-04-14T13:09:07.535Z,3.35
2019-04-14T13:14:11.010Z,3.27
2019-04-14T13:19:14.588Z,3.27
2019-04-14T13:24:18.050Z,3.08
2019-04-14T13:29:21.515Z,4.35
2019-04-14T13:34:24.973Z,3.58
2019-04-14T13:39:28.465Z,3.12
2019-04-14T13:44:32.024Z,3.15
2019-04-14T13:49:37.062Z,3.02
2019-04-14T13:54:40.548Z,2.98
2019-04-14T13:59:44.014Z,3.30
2019-04-14T14:04:47.477Z,3.12
2019-04-14T14:09:51.207Z,2.70
2019-04-14T14:14:56.309Z,2.98
2019-04-14T14:20:17.604Z,2.75
2019-04-14T14:25:22.696Z,3.13
2019-04-14T14:30:34.883Z,2.67
2019-04-14T14:35:38.357Z,3.30
2019-04-14T14:40:41.821Z,3.17
2019-04-14T14:45:52.633Z,2.73
2019-04-14T14:51:09.872Z,2.95
2019-04-14T14:56:13.318Z,2.90
2019-04-14T15:01:16.778Z,2.90
2019-04-14T15:06:20.646Z,2.58
2019-04-14T15:11:24.108Z,2.40
2019-04-14T15:16:27.733Z,2.55
2019-04-14T15:21:31.199Z,2.70
2019-04-14T15:26:34.657Z,2.80
2019-04-14T15:31:38.161Z,2.50
2019-04-14T15:36:41.621Z,2.50
2019-04-14T15:41:45.150Z,3.07
2019-04-14T15:46:48.611Z,2.67
2019-04-14T15:51:52.070Z,2.65
2019-04-14T15:57:02.857Z,2.27
2019-04-14T16:02:13.777Z,2.20
2019-04-14T16:07:24.617Z,2.50
2019-04-14T16:12:29.714Z,2.37
2019-04-14T16:17:34.808Z,2.45
2019-04-14T16:22:39.136Z,2.70
2019-04-14T16:27:44.284Z,2.25
2019-04-14T16:33:05.682Z,2.20
2019-04-14T16:38:09.141Z,2.30
2019-04-14T16:43:12.592Z,2.00
2019-04-14T16:48:16.049Z,2.42
2019-04-14T16:53:30.115Z,2.37
2019-04-14T16:58:38.423Z,1.92
2019-04-14T17:03:41.876Z,1.87
2019-04-14T17:08:45.337Z,2.22
2019-04-14T17:13:52.862Z,1.98
2019-04-14T17:19:12.658Z,2.08
2019-04-14T17:24:17.767Z,2.02
2019-04-14T17:29:22.872Z,2.15
2019-04-14T17:34:28.005Z,1.85
2019-04-14T17:39:38.802Z,2.00
2019-04-14T17:44:43.901Z,1.87
2019-04-14T17:49:51.707Z,1.70
2019-04-14T17:55:09.057Z,1.75
2019-04-14T18:00:14.388Z,1.90
2019-04-14T18:05:35.853Z,1.90
2019-04-14T18:10:40.953Z,1.60
2019-04-14T18:15:52.063Z,1.90
2019-04-14T18:20:57.159Z,1.90
2019-04-14T18:26:00.791Z,1.95
2019-04-14T18:31:05.888Z,1.90
2019-04-14T18:36:16.545Z,1.82
2019-04-14T18:41:24.611Z,1.90
2019-04-14T18:46:29.726Z,1.85
2019-04-14T18:51:34.852Z,1.60
2019-04-14T18:56:48.452Z,1.77
2019-04-14T19:01:53.553Z,1.80
2019-04-14T19:06:57.058Z,1.55
2019-04-14T19:12:05.512Z,1.85
2019-04-14T19:17:19.383Z,1.98
2019-04-14T19:22:22.870Z,1.40
2019-04-14T19:27:26.357Z,1.55
2019-04-14T19:32:29.830Z,2.00
2019-04-14T19:37:33.325Z,1.50
2019-04-14T19:42:36.801Z,1.80
2019-04-14T19:47:40.284Z,1.90
2019-04-14T19:52:43.763Z,1.73
2019-04-14T19:57:47.249Z,1.37
2019-04-14T20:02:50.725Z,1.50
2019-04-14T20:07:54.204Z,1.62
2019-04-14T20:12:57.958Z,1.70
2019-04-14T20:18:15.098Z,1.50
2019-04-14T20:23:22.917Z,1.55
2019-04-14T20:28:31.217Z,1.57
2019-04-14T20:33:34.694Z,1.77
2019-04-14T20:38:38.196Z,1.37
2019-04-14T20:43:41.676Z,1.55
2019-04-14T20:48:45.211Z,1.50
2019-04-14T20:53:48.670Z,2.27
2019-04-14T20:58:52.149Z,1.40
2019-04-14T21:04:00.026Z,1.80
2019-04-14T21:09:17.306Z,1.87
2019-04-14T21:14:25.233Z,1.43
2019-04-14T21:19:36.577Z,1.73
2019-04-14T21:24:50.930Z,1.47
2019-04-14T21:29:58.971Z,1.27
2019-04-14T21:35:06.469Z,1.52
2019-04-14T21:40:17.263Z,1.20
2019-04-14T21:45:20.734Z,1.60
2019-04-14T21:50:24.215Z,1.37
2019-04-14T21:55:27.697Z,1.17
2019-04-14T22:00:53.393Z,1.72
2019-04-14T22:05:58.511Z,1.57
2019-04-14T22:11:03.797Z,1.37
2019-04-14T22:16:07.274Z,1.40
2019-04-14T22:21:10.747Z,1.30
2019-04-14T22:26:25.496Z,1.40
2019-04-14T22:31:20.158Z,1.10
2019-04-14T22:36:23.638Z,1.62
2019-04-14T22:41:27.116Z,1.50
2019-04-14T22:46:30.577Z,1.60
2019-04-14T22:51:34.075Z,1.17
2019-04-14T22:56:39.550Z,1.20
2019-04-14T23:01:44.322Z,1.10
2019-04-14T23:07:05.452Z,1.30
2019-04-14T23:12:22.559Z,1.10
2019-04-14T23:17:33.316Z,1.17
2019-04-14T23:22:54.797Z,1.10
2019-04-14T23:27:58.259Z,1.27
2019-04-14T23:33:01.724Z,0.80
2019-04-14T23:38:05.204Z,1.35
2019-04-14T23:43:08.653Z,1.37
2019-04-14T23:48:12.117Z,1.42
2019-04-14T23:53:15.584Z,1.30
2019-04-14T23:58:19.047Z,1.10
